Time;durP1;ratioP1;P1;durP2;ratioP2;P2;SDS_P1;SDS_P2;PMS_P1;PMS_P2;Temp;Humidity;BMP_temperature;BMP_pressure;BME280_temperature;BME280_humidity;BME280_pressure;Samples;Min_cycle;Max_cycle;Signal;HPM_P1;HPM_P2
2022/06/12 00:00:01;;;;;;;7.43;3.30;;;18.90;99.90;;;;;;5030286;28;20029;-88
2022/06/12 00:02:26;;;;;;;6.60;3.17;;;18.90;99.90;;;;;;5031484;28;20033;-87
2022/06/12 00:04:52;;;;;;;5.82;3.40;;;18.90;99.90;;;;;;5028028;28;20056;-90
2022/06/12 00:07:18;;;;;;;5.57;3.20;;;;;;;;;;5034664;28;20026;-89
2022/06/12 00:09:44;;;;;;;6.63;3.65;;;18.80;99.90;;;;;;5031835;28;20041;-88
2022/06/12 00:12:10;;;;;;;7.55;3.40;;;;;;;;;;5032067;28;20109;-89
2022/06/12 00:14:36;;;;;;;5.47;3.13;;;18.70;99.90;;;;;;5028399;28;20040;-87
2022/06/12 00:17:03;;;;;;;6.20;3.40;;;;;;;;;;5037692;28;20026;-88
2022/06/12 00:19:30;;;;;;;7.30;3.42;;;18.70;99.90;;;;;;5032805;28;20411;-88
2022/06/12 00:21:57;;;;;;;5.38;3.42;;;18.70;99.90;;;;;;5034430;28;20028;-88
2022/06/12 00:24:24;;;;;;;6.18;3.38;;;18.60;99.90;;;;;;5025230;28;20282;-88
2022/06/12 00:26:55;;;;;;;6.65;3.65;;;18.60;99.90;;;;;;5028387;28;20128;-89
2022/06/12 00:29:33;;;;;;;7.00;3.72;;;18.50;99.90;;;;;;5036454;28;20025;-90
2022/06/12 00:32:09;;;;;;;6.63;3.53;;;18.50;99.90;;;;;;5032907;28;20076;-87
2022/06/12 00:34:42;;;;;;;8.13;3.85;;;18.50;99.90;;;;;;5029333;28;20036;-87
2022/06/12 00:37:11;;;;;;;10.93;3.80;;;18.40;99.90;;;;;;5034231;28;20029;-89
2022/06/12 00:39:37;;;;;;;7.03;3.50;;;;;;;;;;5029310;28;20033;-89
2022/06/12 00:42:05;;;;;;;6.25;3.80;;;18.40;99.90;;;;;;5023515;28;20080;-87
2022/06/12 00:44:36;;;;;;;7.03;3.50;;;18.30;99.90;;;;;;5028158;28;20091;-86
2022/06/12 00:47:05;;;;;;;6.90;3.60;;;18.30;99.90;;;;;;5041236;28;20036;-85
2022/06/12 00:49:53;;;;;;;4.65;3.28;;;18.20;99.90;;;;;;5048386;28;20052;-87
2022/06/12 00:52:32;;;;;;;7.25;4.03;;;18.20;99.90;;;;;;5050293;28;20042;-87
2022/06/12 00:55:08;;;;;;;5.88;3.63;;;18.10;99.90;;;;;;5044786;28;20048;-87
2022/06/12 00:57:35;;;;;;;6.47;3.60;;;18.10;99.90;;;;;;5037680;28;20022;-87
2022/06/12 01:00:05;;;;;;;8.30;3.95;;;18.10;99.90;;;;;;5030558;28;20036;-88
2022/06/12 01:02:34;;;;;;;6.75;3.22;;;18.10;99.90;;;;;;5030551;28;20025;-89
2022/06/12 01:07:50;;;;;;;7.05;3.40;;;17.90;99.90;;;;;;5026485;28;20036;-89
2022/06/12 01:10:18;;;;;;;8.20;3.15;;;18.00;99.90;;;;;;5026567;28;20038;-89
2022/06/12 01:12:55;;;;;;;7.03;3.55;;;18.00;99.90;;;;;;5026886;28;20037;-89
2022/06/12 01:15:32;;;;;;;6.07;3.15;;;18.10;99.90;;;;;;5027587;28;20076;-89
2022/06/12 01:17:59;;;;;;;4.25;3.15;;;18.00;99.90;;;;;;5034788;28;20278;-89
2022/06/12 01:20:31;;;;;;;5.70;3.17;;;18.00;99.90;;;;;;5026977;28;20487;-88
2022/06/12 01:23:21;;;;;;;5.15;3.10;;;17.90;99.90;;;;;;5029450;28;20037;-89
2022/06/12 01:26:02;;;;;;;6.18;3.03;;;18.00;99.90;;;;;;5030084;28;20126;-88
2022/06/12 01:28:51;;;;;;;5.43;3.00;;;17.80;99.90;;;;;;5032441;28;20037;-87
2022/06/12 01:31:38;;;;;;;6.00;3.17;;;17.80;99.90;;;;;;5037438;28;20036;-87
2022/06/12 01:34:23;;;;;;;4.72;3.13;;;17.90;99.90;;;;;;5027466;28;20086;-88
2022/06/12 01:37:06;;;;;;;5.03;3.45;;;17.90;99.90;;;;;;5030167;28;20026;-89
2022/06/12 01:40:09;;;;;;;6.65;3.65;;;17.90;99.90;;;;;;5035317;28;20102;-87
2022/06/12 01:42:51;;;;;;;8.25;3.83;;;17.90;99.90;;;;;;5050163;28;20041;-86
2022/06/12 01:45:39;;;;;;;6.18;3.72;;;17.80;99.90;;;;;;5046115;28;20014;-88
2022/06/12 01:48:28;;;;;;;7.35;3.58;;;17.80;99.90;;;;;;5046363;28;20025;-87
2022/06/12 01:51:13;;;;;;;5.80;3.22;;;17.80;99.90;;;;;;5028578;28;20515;-88
2022/06/12 01:53:49;;;;;;;5.55;3.15;;;17.80;99.90;;;;;;5026664;28;20022;-87
2022/06/12 01:56:24;;;;;;;6.22;3.60;;;17.80;99.90;;;;;;5032140;28;20029;-88
2022/06/12 01:59:02;;;;;;;7.55;3.88;;;17.70;99.90;;;;;;5031999;28;20025;-85
2022/06/12 02:01:53;;;;;;;4.68;3.60;;;17.70;99.90;;;;;;5031303;28;20045;-87
2022/06/12 02:04:27;;;;;;;5.18;3.20;;;17.70;99.90;;;;;;5034210;28;20041;-90
2022/06/12 02:07:20;;;;;;;7.95;3.67;;;17.60;99.90;;;;;;5035986;28;20037;-88
2022/06/12 02:10:06;;;;;;;6.72;3.53;;;17.60;99.90;;;;;;5034805;28;20032;-87
2022/06/12 02:15:38;;;;;;;6.38;4.20;;;17.50;99.90;;;;;;5031733;28;20056;-88
2022/06/12 02:18:20;;;;;;;6.38;3.58;;;17.50;99.90;;;;;;5028514;28;20026;-88
2022/06/12 02:21:05;;;;;;;7.30;4.13;;;17.50;99.90;;;;;;5034907;28;20025;-90
2022/06/12 02:23:50;;;;;;;7.28;3.92;;;17.50;99.90;;;;;;5034687;28;20116;-87
2022/06/12 02:26:20;;;;;;;6.90;3.80;;;17.50;99.90;;;;;;5051024;28;20038;-87
2022/06/12 02:28:51;;;;;;;8.63;3.78;;;17.50;99.90;;;;;;5036421;28;20025;-88
2022/06/12 02:31:28;;;;;;;6.55;3.97;;;17.40;99.90;;;;;;5030183;28;20049;-87
2022/06/12 02:34:06;;;;;;;7.68;4.10;;;17.40;99.90;;;;;;5032496;28;20037;-83
2022/06/12 02:36:37;;;;;;;6.72;3.88;;;17.50;99.90;;;;;;5050339;28;20049;-88
2022/06/12 02:39:10;;;;;;;6.32;3.72;;;17.30;99.90;;;;;;5036361;28;20029;-87
2022/06/12 02:41:44;;;;;;;5.18;3.95;;;17.30;99.90;;;;;;5031550;28;20548;-85
2022/06/12 02:44:17;;;;;;;9.23;4.00;;;17.30;99.90;;;;;;5032505;28;20164;-88
2022/06/12 02:46:45;;;;;;;5.90;3.72;;;17.30;99.90;;;;;;5030479;28;20026;-88
2022/06/12 02:49:12;;;;;;;8.90;3.95;;;17.30;99.90;;;;;;5037313;28;20025;-83
2022/06/12 02:51:50;;;;;;;7.20;3.92;;;17.20;99.90;;;;;;5034298;28;20033;-85
2022/06/12 02:54:33;;;;;;;5.00;3.25;;;17.20;99.90;;;;;;5032843;28;20026;-87
2022/06/12 02:57:20;;;;;;;7.10;3.67;;;17.20;99.90;;;;;;5030186;28;20033;-85
2022/06/12 02:59:51;;;;;;;6.10;3.83;;;17.20;99.90;;;;;;5035844;28;20491;-85
2022/06/12 03:02:29;;;;;;;7.65;4.00;;;17.20;99.90;;;;;;5036404;28;20037;-85
2022/06/12 03:05:11;;;;;;;6.03;3.70;;;17.20;99.90;;;;;;5039091;28;20026;-87
2022/06/12 03:07:37;;;;;;;6.47;3.67;;;17.20;99.90;;;;;;5036256;28;20047;-85
2022/06/12 03:10:06;;;;;;;7.68;3.95;;;17.20;99.90;;;;;;5032784;28;20120;-85
2022/06/12 03:12:33;;;;;;;6.90;3.70;;;17.10;99.90;;;;;;5035174;28;20094;-86
2022/06/12 03:15:00;;;;;;;7.18;4.00;;;17.20;99.90;;;;;;5034253;28;20036;-86
2022/06/12 03:17:26;;;;;;;5.68;3.70;;;17.10;99.90;;;;;;5037389;28;20029;-85
2022/06/12 03:19:55;;;;;;;5.93;3.58;;;17.20;99.90;;;;;;5040114;28;20044;-86
2022/06/12 03:22:21;;;;;;;6.60;3.70;;;17.20;99.90;;;;;;5046775;28;20025;-88
2022/06/12 03:25:11;;;;;;;9.50;4.45;;;17.10;99.90;;;;;;5050022;28;20025;-86
2022/06/12 03:28:00;;;;;;;7.38;4.50;;;17.10;99.90;;;;;;5047164;28;20006;-85
2022/06/12 03:30:35;;;;;;;6.38;3.78;;;17.10;99.90;;;;;;5044311;28;20033;-86
2022/06/12 03:33:07;;;;;;;6.55;4.13;;;17.10;99.90;;;;;;5039460;28;20021;-84
2022/06/12 03:35:56;;;;;;;8.88;4.47;;;17.10;99.90;;;;;;5028429;28;20021;-83
2022/06/12 03:38:29;;;;;;;10.50;5.57;;;17.10;99.90;;;;;;5031044;28;20025;-88
2022/06/12 03:41:09;;;;;;;6.50;3.60;;;17.10;99.90;;;;;;5030073;28;20029;-85
2022/06/12 03:43:41;;;;;;;5.38;3.25;;;17.10;99.90;;;;;;5035874;28;20300;-84
2022/06/12 03:46:24;;;;;;;5.72;3.53;;;17.10;99.90;;;;;;5032091;28;20474;-84
2022/06/12 03:49:01;;;;;;;4.75;2.92;;;17.10;99.90;;;;;;5013490;28;20508;-85
2022/06/12 03:51:51;;;;;;;5.72;3.53;;;17.20;99.90;;;;;;5034793;28;20033;-85
2022/06/12 03:55:00;;;;;;;5.05;3.58;;;17.10;99.90;;;;;;5034813;28;20032;-83
2022/06/12 03:57:53;;;;;;;5.13;3.35;;;17.10;99.90;;;;;;5038058;28;20033;-83
2022/06/12 04:00:35;;;;;;;6.65;3.33;;;17.10;99.90;;;;;;5029971;28;20038;-83
2022/06/12 04:03:15;;;;;;;8.18;3.00;;;17.10;99.90;;;;;;5038533;28;20036;-86
2022/06/12 04:05:46;;;;;;;7.13;3.05;;;17.20;99.90;;;;;;5022164;28;20034;-86
2022/06/12 04:08:21;;;;;;;5.10;3.22;;;17.20;99.90;;;;;;5031190;28;20033;-86
2022/06/12 04:10:47;;;;;;;6.88;3.47;;;17.20;99.90;;;;;;5025453;28;20057;-85
2022/06/12 04:13:20;;;;;;;4.82;2.95;;;17.20;99.90;;;;;;5023007;28;20190;-85
2022/06/12 04:16:05;;;;;;;7.70;3.50;;;17.20;99.90;;;;;;5037850;28;20083;-85
2022/06/12 04:18:32;;;;;;;4.03;2.95;;;17.30;99.90;;;;;;5028355;28;20446;-85
2022/06/12 04:21:03;;;;;;;7.40;4.18;;;17.30;99.90;;;;;;5027947;28;20394;-85
2022/06/12 04:23:39;;;;;;;5.00;3.30;;;17.30;99.90;;;;;;5036156;28;20057;-86
2022/06/12 04:26:35;;;;;;;5.55;3.10;;;17.30;99.90;;;;;;5035054;28;20030;-85
2022/06/12 04:29:24;;;;;;;6.57;3.67;;;17.30;99.90;;;;;;5027897;28;20032;-84
2022/06/12 04:31:53;;;;;;;6.40;3.55;;;17.40;99.90;;;;;;5029305;28;20121;-85
2022/06/12 04:34:29;;;;;;;8.25;3.67;;;17.40;99.90;;;;;;5036348;28;20037;-86
2022/06/12 04:37:03;;;;;;;4.60;2.95;;;17.50;99.90;;;;;;5031788;28;20116;-86
2022/06/12 04:39:32;;;;;;;5.10;3.20;;;17.50;99.90;;;;;;5023120;28;20021;-87
2022/06/12 04:42:00;;;;;;;6.13;3.43;;;17.60;99.90;;;;;;5031404;28;20030;-87
2022/06/12 04:44:25;;;;;;;6.57;4.10;;;17.60;99.90;;;;;;5029587;28;20191;-87
2022/06/12 04:46:54;;;;;;;5.90;3.85;;;17.60;99.90;;;;;;5033761;28;20552;-86
2022/06/12 04:49:23;;;;;;;6.65;3.60;;;17.60;99.90;;;;;;5027089;28;20512;-88
2022/06/12 04:51:50;;;;;;;6.53;3.80;;;17.70;99.90;;;;;;5022807;28;20029;-86
2022/06/12 04:54:17;;;;;;;7.55;3.53;;;17.70;99.90;;;;;;5040493;28;20123;-86
2022/06/12 04:56:43;;;;;;;5.70;3.42;;;17.70;99.90;;;;;;5048347;28;20034;-84
2022/06/12 04:59:11;;;;;;;8.95;3.60;;;17.70;99.90;;;;;;5048850;28;20021;-89
2022/06/12 05:01:37;;;;;;;6.65;3.63;;;17.80;99.90;;;;;;5040481;28;20026;-84
2022/06/12 05:04:05;;;;;;;8.98;3.70;;;17.70;99.90;;;;;;5034291;28;20088;-84
2022/06/12 05:06:31;;;;;;;7.63;4.18;;;17.80;99.90;;;;;;5027699;28;20030;-85
2022/06/12 05:08:58;;;;;;;7.65;3.72;;;17.80;99.90;;;;;;5027050;28;20056;-85
2022/06/12 05:11:24;;;;;;;6.85;3.97;;;17.90;99.90;;;;;;5026346;28;20051;-86
2022/06/12 05:13:51;;;;;;;6.72;3.72;;;17.90;99.90;;;;;;5025447;28;20055;-86
2022/06/12 05:16:28;;;;;;;7.72;3.47;;;17.90;99.90;;;;;;5029268;28;20072;-85
2022/06/12 05:18:55;;;;;;;11.82;4.22;;;18.00;99.90;;;;;;5034517;28;20025;-83
2022/06/12 05:21:22;;;;;;;10.40;3.80;;;18.10;99.90;;;;;;5030708;28;20040;-85
2022/06/12 05:23:48;;;;;;;5.90;3.60;;;18.30;99.90;;;;;;5026585;28;20117;-85
2022/06/12 05:26:15;;;;;;;6.43;3.72;;;18.40;99.90;;;;;;5030169;28;20052;-84
2022/06/12 05:28:41;;;;;;;5.22;3.65;;;18.60;99.90;;;;;;5024875;28;20156;-87
2022/06/12 05:31:07;;;;;;;6.45;3.20;;;18.90;99.90;;;;;;5020168;28;20597;-84
2022/06/12 05:33:33;;;;;;;7.13;3.40;;;19.20;99.90;;;;;;5030669;28;20117;-85
2022/06/12 05:35:58;;;;;;;5.78;3.75;;;19.70;99.90;;;;;;5029075;28;20029;-85
2022/06/12 05:38:24;;;;;;;6.72;3.58;;;20.00;99.90;;;;;;5032208;28;20689;-84
2022/06/12 05:40:50;;;;;;;5.13;3.58;;;20.10;99.90;;;;;;5037526;28;20750;-85
2022/06/12 05:43:16;;;;;;;7.63;3.80;;;20.30;99.90;;;;;;5031344;28;20470;-85
2022/06/12 05:45:42;;;;;;;8.32;3.97;;;20.50;99.90;;;;;;5027047;28;20517;-85
2022/06/12 05:48:15;;;;;;;6.15;3.58;;;20.60;99.90;;;;;;5034347;28;20105;-87
2022/06/12 05:50:55;;;;;;;4.78;3.00;;;20.60;99.90;;;;;;5029476;28;20030;-81
2022/06/12 05:53:23;;;;;;;6.07;3.50;;;20.80;99.90;;;;;;5031867;28;20029;-84
2022/06/12 05:55:50;;;;;;;18.25;11.63;;;21.20;99.90;;;;;;5034491;28;20029;-82
2022/06/12 05:58:17;;;;;;;6.00;3.50;;;21.90;99.90;;;;;;5033112;28;21659;-83
2022/06/12 06:00:44;;;;;;;6.55;3.78;;;22.10;99.90;;;;;;5032235;28;20057;-84
2022/06/12 06:03:09;;;;;;;5.28;3.33;;;22.30;99.90;;;;;;5028506;28;20025;-84
2022/06/12 06:05:36;;;;;;;5.18;3.05;;;22.50;99.90;;;;;;5031323;28;20030;-81
2022/06/12 06:08:03;;;;;;;6.15;2.95;;;22.90;99.90;;;;;;5026905;28;20041;-84
2022/06/12 06:10:29;;;;;;;5.75;2.80;;;22.30;99.90;;;;;;5031398;28;20037;-83
2022/06/12 06:12:55;;;;;;;8.80;3.03;;;23.20;99.90;;;;;;5024569;28;20028;-86
2022/06/12 06:15:22;;;;;;;4.53;3.00;;;22.60;99.90;;;;;;5036786;28;20108;-84
2022/06/12 06:17:48;;;;;;;4.07;2.58;;;22.40;99.90;;;;;;5034406;28;20086;-85
2022/06/12 06:20:22;;;;;;;5.70;2.60;;;22.50;99.90;;;;;;5048959;28;20538;-81
2022/06/12 06:22:48;;;;;;;4.47;2.88;;;22.70;99.90;;;;;;5032758;28;20029;-83
2022/06/12 06:25:14;;;;;;;4.80;2.97;;;22.80;99.90;;;;;;5042007;28;20031;-85
2022/06/12 06:27:39;;;;;;;6.55;2.60;;;23.00;99.90;;;;;;5026376;28;20022;-84
2022/06/12 06:30:06;;;;;;;5.03;2.38;;;23.40;99.90;;;;;;5036082;28;20033;-84
2022/06/12 06:32:32;;;;;;;4.22;2.75;;;23.50;99.90;;;;;;5036372;28;20048;-84
2022/06/12 06:34:58;;;;;;;3.65;2.10;;;23.70;99.80;;;;;;5041893;28;20018;-84
2022/06/12 06:37:24;;;;;;;8.25;2.08;;;23.70;99.70;;;;;;5038727;28;20025;-83
2022/06/12 06:39:50;;;;;;;4.50;2.20;;;23.30;99.90;;;;;;5033745;28;20025;-82
2022/06/12 06:42:15;;;;;;;5.43;2.25;;;23.00;99.90;;;;;;5053665;28;20087;-84
2022/06/12 06:47:25;;;;;;;5.30;2.20;;;23.30;99.90;;;;;;5025038;28;20044;-84
2022/06/12 06:49:51;;;;;;;3.67;2.17;;;23.50;99.90;;;;;;5036136;28;20247;-82
2022/06/12 06:52:17;;;;;;;3.85;2.10;;;23.60;99.80;;;;;;5033455;28;20034;-84
2022/06/12 06:54:43;;;;;;;5.10;2.47;;;23.70;99.90;;;;;;5032358;28;20033;-84
2022/06/12 06:57:09;;;;;;;3.63;1.95;;;23.90;99.50;;;;;;5033507;28;20022;-84
2022/06/12 06:59:35;;;;;;;6.00;2.03;;;23.80;99.40;;;;;;5040606;28;20395;-87
2022/06/12 07:02:02;;;;;;;3.08;1.85;;;;;;;;;;5043917;28;20068;-85
2022/06/12 07:04:28;;;;;;;3.75;2.08;;;23.50;99.70;;;;;;5038906;28;20032;-87
2022/06/12 07:06:53;;;;;;;3.92;2.15;;;23.40;99.90;;;;;;5043638;28;20096;-86
2022/06/12 07:09:19;;;;;;;5.68;2.17;;;23.30;99.90;;;;;;5032480;28;20037;-84
2022/06/12 07:11:45;;;;;;;5.82;1.95;;;;;;;;;;5040315;28;20049;-85
2022/06/12 07:14:11;;;;;;;4.95;2.20;;;;;;;;;;5044510;28;20036;-86
2022/06/12 07:16:39;;;;;;;5.50;2.30;;;23.10;99.90;;;;;;5042087;28;20041;-86
2022/06/12 07:19:06;;;;;;;6.47;2.20;;;23.10;99.90;;;;;;5039761;28;20029;-86
2022/06/12 07:21:32;;;;;;;3.75;1.85;;;;;;;;;;5030460;28;20029;-86
2022/06/12 07:23:58;;;;;;;4.97;1.90;;;;;;;;;;5039727;28;20026;-86
2022/06/12 07:26:29;;;;;;;4.90;2.15;;;23.10;99.90;;;;;;5038684;28;20030;-87
2022/06/12 07:28:55;;;;;;;4.75;2.20;;;23.20;99.90;;;;;;5034571;28;20491;-84
2022/06/12 07:31:22;;;;;;;5.00;2.30;;;23.20;99.90;;;;;;5036251;28;20037;-85
2022/06/12 07:33:48;;;;;;;4.85;2.47;;;;;;;;;;5033399;28;20026;-84
2022/06/12 07:36:16;;;;;;;4.38;2.13;;;23.30;99.90;;;;;;5035181;28;20104;-84
2022/06/12 07:38:44;;;;;;;3.53;2.15;;;23.50;99.90;;;;;;5036646;28;20029;-87
2022/06/12 07:41:11;;;;;;;5.57;2.17;;;23.60;99.30;;;;;;5034909;28;20675;-83
2022/06/12 07:43:39;;;;;;;6.47;2.22;;;23.60;99.50;;;;;;5038665;28;20056;-84
2022/06/12 07:46:07;;;;;;;3.53;1.98;;;23.50;99.30;;;;;;5034429;28;20033;-86
2022/06/12 07:48:33;;;;;;;4.15;1.80;;;23.50;99.60;;;;;;5027939;28;20030;-88
2022/06/12 07:51:01;;;;;;;4.93;2.10;;;23.50;99.30;;;;;;5036435;28;20021;-82
2022/06/12 07:53:27;;;;;;;4.22;2.40;;;;;;;;;;5030192;28;20040;-85
2022/06/12 07:55:54;;;;;;;4.47;2.00;;;23.60;99.10;;;;;;5052879;28;20084;-85
2022/06/12 07:58:23;;;;;;;4.10;1.80;;;23.50;99.10;;;;;;5071757;28;20052;-87
2022/06/12 08:00:49;;;;;;;5.77;2.10;;;23.60;99.20;;;;;;5049845;28;20026;-84
2022/06/12 08:03:16;;;;;;;4.18;2.20;;;23.80;99.40;;;;;;5044712;28;20060;-85
2022/06/12 08:05:41;;;;;;;3.85;2.00;;;23.90;99.20;;;;;;5056817;28;20017;-87
2022/06/12 08:08:07;;;;;;;3.72;1.75;;;24.10;98.90;;;;;;5044745;28;20577;-83
2022/06/12 08:10:34;;;;;;;4.28;2.13;;;24.20;98.70;;;;;;5032028;28;20061;-85
2022/06/12 08:13:04;;;;;;;6.07;2.30;;;24.30;98.50;;;;;;5030503;28;20033;-85
2022/06/12 08:15:30;;;;;;;4.20;1.90;;;24.40;97.90;;;;;;5046761;28;20021;-85
2022/06/12 08:17:57;;;;;;;4.22;1.92;;;24.40;97.90;;;;;;5038033;28;20037;-85
2022/06/12 08:20:24;;;;;;;5.35;2.20;;;24.40;97.70;;;;;;5046589;28;20061;-86
2022/06/12 08:22:56;;;;;;;4.97;2.13;;;24.50;97.60;;;;;;5040791;28;20021;-86
2022/06/12 08:25:22;;;;;;;4.05;1.70;;;24.50;97.70;;;;;;5030942;28;20048;-86
2022/06/12 08:27:48;;;;;;;6.00;2.33;;;24.60;97.70;;;;;;5037122;28;20124;-84
2022/06/12 08:30:14;;;;;;;5.32;2.22;;;24.70;97.60;;;;;;5025506;28;20031;-86
2022/06/12 08:32:43;;;;;;;3.20;1.90;;;24.80;97.60;;;;;;5028843;28;20441;-84
2022/06/12 08:35:15;;;;;;;3.72;1.88;;;25.00;97.30;;;;;;5026290;28;20021;-86
2022/06/12 08:37:42;;;;;;;3.58;2.00;;;25.10;96.90;;;;;;5026519;28;20544;-86
2022/06/12 08:40:27;;;;;;;2.90;1.90;;;25.20;97.10;;;;;;5033982;28;20618;-85
2022/06/12 08:43:09;;;;;;;4.57;1.90;;;25.30;97.20;;;;;;5028587;28;20380;-85
2022/06/12 08:45:44;;;;;;;3.85;1.98;;;25.30;97.00;;;;;;5026544;28;20410;-86
2022/06/12 08:48:15;;;;;;;4.93;2.15;;;25.50;97.00;;;;;;5030356;28;20025;-86
2022/06/12 08:50:50;;;;;;;7.68;2.25;;;25.50;96.50;;;;;;5028904;28;20371;-86
2022/06/12 08:53:16;;;;;;;3.13;1.60;;;25.50;96.60;;;;;;5023313;28;20084;-86
2022/06/12 08:55:55;;;;;;;3.85;1.83;;;25.50;96.40;;;;;;5028689;28;20030;-87
2022/06/12 08:58:39;;;;;;;3.53;1.80;;;25.60;95.90;;;;;;5042245;28;20069;-85
2022/06/12 09:01:05;;;;;;;6.70;2.25;;;25.60;95.90;;;;;;5054933;28;20042;-85
2022/06/12 09:03:39;;;;;;;5.15;1.90;;;25.60;95.90;;;;;;5043504;28;20013;-85
2022/06/12 09:06:19;;;;;;;4.72;2.03;;;25.80;96.00;;;;;;5056593;28;20046;-86
2022/06/12 09:09:23;;;;;;;2.83;1.80;;;26.60;96.00;;;;;;5041243;28;20228;-86
2022/06/12 09:12:07;;;;;;;4.88;2.00;;;26.10;95.20;;;;;;5035394;28;20036;-85
2022/06/12 09:14:41;;;;;;;6.68;2.20;;;26.20;95.30;;;;;;5036370;28;20026;-84
2022/06/12 09:17:13;;;;;;;3.60;1.95;;;26.20;95.40;;;;;;5033975;28;20029;-84
2022/06/12 09:19:54;;;;;;;4.22;2.10;;;26.30;95.50;;;;;;5033801;28;20475;-85
2022/06/12 09:22:32;;;;;;;5.65;2.05;;;26.40;94.90;;;;;;5038216;28;20044;-85
2022/06/12 09:25:10;;;;;;;6.78;2.03;;;26.40;94.60;;;;;;5031720;28;20030;-85
2022/06/12 09:27:42;;;;;;;3.92;2.10;;;26.40;94.80;;;;;;5034960;28;20026;-84
2022/06/12 09:30:16;;;;;;;4.43;1.90;;;26.50;94.70;;;;;;5035671;28;20033;-85
2022/06/12 09:32:55;;;;;;;4.68;2.08;;;26.60;94.40;;;;;;5038740;28;20040;-87
2022/06/12 09:35:41;;;;;;;4.22;1.95;;;26.60;94.30;;;;;;5042516;28;20372;-87
2022/06/12 09:38:21;;;;;;;5.20;1.95;;;26.70;93.80;;;;;;5034549;28;20121;-85
2022/06/12 09:41:17;;;;;;;3.72;1.73;;;26.60;93.60;;;;;;5043488;28;20029;-85
2022/06/12 09:44:07;;;;;;;3.45;2.30;;;26.70;93.90;;;;;;5030378;28;20022;-85
2022/06/12 09:46:45;;;;;;;4.68;2.00;;;26.90;93.80;;;;;;5033062;28;20484;-83
2022/06/12 09:49:19;;;;;;;3.92;1.98;;;27.00;93.70;;;;;;5040911;28;20104;-83
2022/06/12 09:51:51;;;;;;;5.40;1.85;;;27.00;93.20;;;;;;5031478;28;20029;-83
2022/06/12 09:54:35;;;;;;;6.50;2.38;;;27.20;93.10;;;;;;5034373;28;20520;-83
2022/06/12 09:57:10;;;;;;;3.92;1.88;;;27.40;92.30;;;;;;5028679;28;20037;-84
2022/06/12 09:59:48;;;;;;;4.38;1.85;;;27.40;91.30;;;;;;5023829;28;20028;-85
2022/06/12 10:02:28;;;;;;;4.63;1.90;;;27.40;91.10;;;;;;5035477;28;20040;-83
2022/06/12 10:05:01;;;;;;;4.15;1.58;;;27.30;91.20;;;;;;5032841;28;20308;-84
2022/06/12 10:07:33;;;;;;;3.25;1.88;;;27.50;90.80;;;;;;5036669;28;20397;-83
2022/06/12 10:10:11;;;;;;;6.60;1.92;;;27.50;91.30;;;;;;5034119;28;20034;-82
2022/06/12 10:12:43;;;;;;;4.72;1.95;;;27.60;90.80;;;;;;5033771;28;20030;-83
2022/06/12 10:15:19;;;;;;;4.70;2.15;;;27.50;90.70;;;;;;5029031;28;20030;-83
2022/06/12 10:17:56;;;;;;;3.63;1.80;;;27.70;90.80;;;;;;5036008;28;20043;-82
2022/06/12 10:20:32;;;;;;;4.20;1.92;;;27.80;91.00;;;;;;5028677;28;20026;-82
2022/06/12 10:22:59;;;;;;;4.22;2.00;;;27.90;90.70;;;;;;5035704;28;20026;-82
2022/06/12 10:25:33;;;;;;;4.93;2.30;;;27.80;90.30;;;;;;5044950;28;20017;-84
2022/06/12 10:28:22;;;;;;;10.52;7.53;;;27.50;90.60;;;;;;5046152;28;20012;-85
2022/06/12 10:31:19;;;;;;;6.65;3.13;;;27.40;90.90;;;;;;5055587;28;20033;-81
2022/06/12 10:34:15;;;;;;;9.65;2.83;;;27.40;90.60;;;;;;5041524;28;20049;-86
2022/06/12 10:36:41;;;;;;;4.63;2.25;;;27.50;90.60;;;;;;5043868;28;20026;-85
2022/06/12 10:39:20;;;;;;;4.53;2.17;;;27.50;90.50;;;;;;5042251;28;20066;-84
2022/06/12 10:42:01;;;;;;;11.20;7.38;;;27.60;90.10;;;;;;5032872;28;20095;-84
2022/06/12 10:44:54;;;;;;;5.38;2.33;;;27.70;90.20;;;;;;5032915;28;20026;-84
2022/06/12 10:47:29;;;;;;;4.70;2.15;;;27.70;90.20;;;;;;4992853;28;20037;-87
2022/06/12 10:50:20;;;;;;;6.05;3.65;;;27.80;90.10;;;;;;5029241;28;20506;-85
2022/06/12 10:53:13;;;;;;;5.07;2.40;;;27.60;89.50;;;;;;5038203;28;20036;-85
2022/06/12 10:55:51;;;;;;;6.70;2.78;;;27.50;90.00;;;;;;5035627;28;20436;-85
2022/06/12 10:58:55;;;;;;;4.80;2.30;;;27.50;90.00;;;;;;5031837;28;20025;-86
2022/06/12 11:01:21;;;;;;;3.92;2.35;;;;;;;;;;5048156;28;20112;-86
2022/06/12 11:03:55;;;;;;;5.78;3.13;;;27.80;87.30;;;;;;5033720;28;20041;-86
2022/06/12 11:07:02;;;;;;;4.05;2.30;;;28.00;87.20;;;;;;5038466;28;20479;-86
2022/06/12 11:09:34;;;;;;;5.10;2.10;;;27.50;86.60;;;;;;5025711;28;20030;-85
2022/06/12 11:12:38;;;;;;;5.22;1.75;;;27.60;88.20;;;;;;5039253;28;20026;-85
2022/06/12 11:15:22;;;;;;;8.55;2.63;;;27.30;87.80;;;;;;5032074;28;20472;-85
2022/06/12 11:18:14;;;;;;;6.03;2.20;;;27.10;89.00;;;;;;5027653;28;20480;-85
2022/06/12 11:21:05;;;;;;;6.30;1.98;;;27.20;88.60;;;;;;5035411;28;20112;-84
2022/06/12 11:23:57;;;;;;;5.70;2.40;;;27.50;88.00;;;;;;5033806;28;20403;-85
2022/06/12 11:26:40;;;;;;;8.38;2.17;;;27.80;86.80;;;;;;5036019;28;20033;-86
2022/06/12 11:29:14;;;;;;;5.10;1.95;;;28.00;85.40;;;;;;5041374;28;20026;-85
2022/06/12 11:32:07;;;;;;;5.60;2.25;;;28.20;84.90;;;;;;5032350;28;20034;-85
2022/06/12 11:34:58;;;;;;;5.38;2.00;;;28.20;84.70;;;;;;5041802;28;20029;-84
2022/06/12 11:37:43;;;;;;;5.03;1.60;;;28.40;84.40;;;;;;5038787;28;20025;-87
2022/06/12 11:40:27;;;;;;;5.00;1.73;;;28.50;84.10;;;;;;5037757;28;20033;-87
2022/06/12 11:43:19;;;;;;;3.92;1.83;;;28.50;83.10;;;;;;5043058;28;20030;-85
2022/06/12 11:46:09;;;;;;;3.08;1.60;;;28.70;82.60;;;;;;5043940;28;20080;-83
2022/06/12 11:48:53;;;;;;;4.95;1.90;;;28.70;81.40;;;;;;5039765;28;20060;-85
2022/06/12 11:52:13;;;;;;;3.88;1.52;;;28.70;81.40;;;;;;5048729;28;20033;-85
2022/06/12 11:55:00;;;;;;;4.00;1.90;;;28.60;80.90;;;;;;4995536;28;20015;-87
2022/06/12 11:58:04;;;;;;;5.13;1.60;;;28.50;81.10;;;;;;5048602;28;20073;-86
2022/06/12 12:00:47;;;;;;;3.10;1.67;;;28.60;81.10;;;;;;5046951;28;20009;-87
2022/06/12 12:03:52;;;;;;;4.88;1.73;;;28.70;80.50;;;;;;5047582;28;20022;-88
2022/06/12 12:06:39;;;;;;;6.35;1.40;;;28.80;80.60;;;;;;5032631;28;20025;-87
2022/06/12 12:09:18;;;;;;;3.95;1.77;;;28.70;80.70;;;;;;5031016;28;20040;-86
2022/06/12 12:12:09;;;;;;;6.43;1.90;;;28.90;80.60;;;;;;5044484;28;20112;-86
2022/06/12 12:14:39;;;;;;;3.55;1.42;;;29.00;79.50;;;;;;5019204;28;20034;-86
2022/06/12 12:17:13;;;;;;;9.23;4.20;;;29.00;79.50;;;;;;5042811;28;20029;-86
2022/06/12 12:19:38;;;;;;;4.53;1.80;;;28.90;79.10;;;;;;5036565;28;20026;-85
2022/06/12 12:22:07;;;;;;;4.72;1.80;;;28.90;79.80;;;;;;5027990;28;20048;-86
2022/06/12 12:24:37;;;;;;;4.38;1.73;;;29.00;81.60;;;;;;5029478;28;20039;-87
2022/06/12 12:27:09;;;;;;;3.55;1.70;;;28.90;78.20;;;;;;5044482;28;20026;-84
2022/06/12 12:29:38;;;;;;;3.67;1.50;;;29.00;78.90;;;;;;5045445;28;20426;-87
2022/06/12 12:32:08;;;;;;;4.22;2.42;;;27.90;77.30;;;;;;5036270;28;20038;-85
2022/06/12 12:34:38;;;;;;;2.90;1.58;;;29.40;77.90;;;;;;5040889;28;20044;-87
2022/06/12 12:42:42;;;;;;;3.03;1.80;;;29.70;75.30;;;;;;5051464;28;20016;-87
2022/06/12 12:45:22;;;;;;;3.45;1.50;;;30.00;77.10;;;;;;5056933;28;20014;-85
2022/06/12 12:48:17;;;;;;;3.63;1.60;;;30.10;75.80;;;;;;5061193;28;20117;-87
2022/06/12 12:50:46;;;;;;;5.03;1.85;;;30.10;75.00;;;;;;5033509;28;20041;-87
2022/06/12 12:53:27;;;;;;;3.60;1.90;;;30.10;74.10;;;;;;5035114;28;20030;-87
2022/06/12 12:56:09;;;;;;;4.45;1.75;;;29.90;73.20;;;;;;5039914;28;20069;-84
2022/06/12 12:58:56;;;;;;;4.43;2.25;;;30.00;73.10;;;;;;5038850;28;20026;-84
2022/06/12 13:01:25;;;;;;;3.92;1.50;;;29.80;72.20;;;;;;5037582;28;20117;-85
2022/06/12 13:03:58;;;;;;;2.50;1.37;;;29.40;73.00;;;;;;5035562;28;20081;-85
2022/06/12 13:06:51;;;;;;;5.28;1.80;;;29.10;73.90;;;;;;5034271;28;20037;-88
2022/06/12 13:09:56;;;;;;;4.53;1.50;;;29.00;73.20;;;;;;5037148;28;20041;-85
2022/06/12 13:12:44;;;;;;;4.88;1.60;;;28.80;74.30;;;;;;5014220;28;20061;-87
2022/06/12 13:15:45;;;;;;;5.40;1.85;;;28.60;74.90;;;;;;5039861;28;20033;-86
2022/06/12 13:18:17;;;;;;;3.88;1.60;;;28.40;74.40;;;;;;5040601;28;21608;-87
2022/06/12 13:21:21;;;;;;;2.40;1.38;;;28.20;74.80;;;;;;5050889;28;20093;-86
2022/06/12 13:24:06;;;;;;;2.78;1.50;;;28.00;75.50;;;;;;4953920;28;20046;-87
2022/06/12 13:26:48;;;;;;;4.00;1.40;;;28.20;75.40;;;;;;5024189;28;20037;-86
2022/06/12 13:29:20;;;;;;;2.63;1.20;;;28.10;76.20;;;;;;5037435;28;20022;-87
2022/06/12 13:32:07;;;;;;;3.60;1.60;;;28.10;75.80;;;;;;5045879;28;20025;-87
2022/06/12 13:34:33;;;;;;;2.85;1.52;;;28.30;76.10;;;;;;5035492;28;20037;-86
2022/06/12 13:37:00;;;;;;;3.97;1.60;;;28.50;75.50;;;;;;5042702;28;20064;-85
2022/06/12 13:39:28;;;;;;;4.35;1.70;;;28.60;74.20;;;;;;5040237;28;20104;-87
2022/06/12 13:42:05;;;;;;;6.45;1.48;;;28.70;73.80;;;;;;5039275;28;20026;-85
2022/06/12 13:44:39;;;;;;;3.75;1.80;;;28.90;74.00;;;;;;5034959;28;20513;-85